Atwood, CO (80722)

11:24 PM MST on December 25, 2014 (GMT -0700)
Sterling Municipal | Change Station
CLOSE
Current Station
Airport
Location: Sterling Muni, Sterling, CO,
Elevation: 4039 ft
Nearby Weather Stations

Elev 4039 ft 40.62 °N, 103.26 °W | Updated 14 minutes ago

Overcast
Overcast
27 °F
Feels Like 17 °F
N
10
Wind Variable Wind from NNE

Today
High -- | Low -- °F
--% Chance of Precip.
Yesterday
High -- | Low -- °F
Precip. -- in
7:14 AM 4:31 PM
Waxing Crescent, 23% visible
Pressure 29.90 in
Visibility 5.0 miles
Clouds Scattered Clouds 1900 ft
Scattered Clouds 2400 ft
Overcast 3300 ft
Windchill 17 °F
Dew Point 23 °F
Humidity 86%
Rainfall 0.00 in
Snow Depth Not available.
UV 0 out of 12
Pollen .10 out of 12
Air Quality Not available.
Flu Activity Not available.
METAR KSTK 260610Z AUTO 02009KT 5SM -SN SCT019 SCT024 OVC033 M03/M05 A2990 RMK AO2

More Conditions Fewer Conditions

Pressure 29.90 in
Visibility 5.0 miles
Clouds Scattered Clouds 1900 ft
Scattered Clouds 2400 ft
Overcast 3300 ft
Windchill 17 °F
Dew Point 23 °F
Humidity 86%
Rainfall 0.00 in
Snow Depth Not available.
UV 0 out of 12
Pollen .10 out of 12
Air Quality Not available.
Flu Activity Not available.
METAR KSTK 260610Z AUTO 02009KT 5SM -SN SCT019 SCT024 OVC033 M03/M05 A2990 RMK AO2

More Conditions Fewer Conditions

10-Day Weather Forecast

Almanac

Astronomy

Dec. 25, 2014 Rise Set
Actual Time
Civil Twilight
Nautical Twilight
Astronomical Twilight
Moon
Length of Visible Light
Length of Day
Tomorrow will be .
, % of the Moon is Illuminated

Today's Extremes

State Highs State Lows

Community

WunderPhotos

Upload Photos

1,780,556 photos uploaded!

WunderBlogs® & News

Nearby

Air Quality

  Air Quality AQ Index Pollutant
Not available.

Snow Depth

Station Depth Elevation

Earthquake Activity

City Distance Mag. Time & Date
Minimum magnitude displayed is 2.5.

Coastal Water Temperatures

Place Temperature

Nearby Weather Stations